Terminal Aerodrome Forecast
Issued by NWS Pittsburgh, PA

Current Version | Previous Version | Text Only | Print | Product List | Glossary Off
Versions: 1 2 3 4 5 6 7 8 9 10 11 12 13 14 15 16 17 18 19 20 21 22 23 24 25 26 27 28 29

000
FTUS41 KPBZ 200500
TAFPIT
TAF
KPIT 200520Z 2006/2112 20003KT P6SM OVC200
     FM201500 22010KT P6SM BKN100
     FM202300 20005KT P6SM -SHRA OVC050
     FM210600 25005KT P6SM VCSH BKN025=

USA.gov is the U.S. government's official web portal to all federal, state and local government web resources and services.